createdAt,value
2017-02-18T00:01:02.521Z,926.15
2017-02-18T00:02:16.209Z,926.12
2017-02-18T00:03:29.341Z,926.16
2017-02-18T00:04:43.110Z,926.22
2017-02-18T00:05:56.848Z,926.21
2017-02-18T00:07:10.515Z,926.25
2017-02-18T00:08:24.210Z,926.3
2017-02-18T00:09:37.950Z,926.34
2017-02-18T00:10:51.680Z,926.37
2017-02-18T00:12:05.382Z,926.44
2017-02-18T00:13:19.057Z,926.42
2017-02-18T00:14:32.794Z,926.4
2017-02-18T00:15:46.552Z,926.47
2017-02-18T00:17:00.250Z,926.47
2017-02-18T00:18:13.347Z,926.48
2017-02-18T00:19:27.076Z,926.47
2017-02-18T00:20:40.812Z,926.44
2017-02-18T00:21:54.517Z,926.45
2017-02-18T00:23:08.231Z,926.44
2017-02-18T00:24:21.985Z,926.41
2017-02-18T00:25:35.668Z,926.37
2017-02-18T00:26:49.402Z,926.35
2017-02-18T00:28:03.120Z,926.36
2017-02-18T00:29:16.856Z,926.4
2017-02-18T00:30:30.578Z,926.35
2017-02-18T00:31:44.271Z,926.31
2017-02-18T00:32:57.978Z,926.31
2017-02-18T00:34:11.730Z,926.34
2017-02-18T00:35:25.421Z,926.32
2017-02-18T00:36:39.141Z,926.32
2017-02-18T00:37:52.270Z,926.34
2017-02-18T00:39:06.013Z,926.29
2017-02-18T00:40:19.741Z,926.34
2017-02-18T00:41:33.456Z,926.32
2017-02-18T00:42:47.171Z,926.32
2017-02-18T00:44:00.927Z,926.34
2017-02-18T00:45:14.006Z,926.32
2017-02-18T00:46:27.132Z,926.31
2017-02-18T00:47:40.259Z,926.32
2017-02-18T00:48:53.952Z,926.33
2017-02-18T00:50:07.686Z,926.34
2017-02-18T00:51:21.409Z,926.38
2017-02-18T00:52:35.105Z,926.34
2017-02-18T00:53:48.873Z,926.42
2017-02-18T00:55:02.589Z,926.45
2017-02-18T00:56:16.326Z,926.42
2017-02-18T00:57:30.055Z,926.43
2017-02-18T00:58:43.763Z,926.45
2017-02-18T00:59:57.475Z,926.45
2017-02-18T01:01:10.608Z,926.47
2017-02-18T01:02:23.701Z,926.51
2017-02-18T01:03:37.391Z,926.57
2017-02-18T01:04:51.097Z,926.56
2017-02-18T01:06:04.816Z,926.58
2017-02-18T01:07:17.934Z,926.61
2017-02-18T01:08:31.634Z,926.6
2017-02-18T01:09:45.388Z,926.61
2017-02-18T01:10:59.132Z,926.64
2017-02-18T01:12:12.849Z,926.6
2017-02-18T01:13:26.545Z,926.61
2017-02-18T01:14:40.245Z,926.65
2017-02-18T01:15:53.981Z,926.69
2017-02-18T01:17:07.695Z,926.72
2017-02-18T01:18:20.783Z,926.77
2017-02-18T01:19:34.481Z,926.77
2017-02-18T01:20:48.179Z,926.74
2017-02-18T01:22:01.892Z,926.77
2017-02-18T01:23:15.619Z,926.76
2017-02-18T01:24:29.393Z,926.77
2017-02-18T01:25:43.122Z,926.76
2017-02-18T01:26:56.826Z,926.79
2017-02-18T01:28:10.526Z,926.75
2017-02-18T01:29:24.293Z,926.73
2017-02-18T01:30:37.415Z,926.69
2017-02-18T01:31:51.114Z,926.66
2017-02-18T01:33:04.183Z,926.66
2017-02-18T01:34:17.902Z,926.65
2017-02-18T01:35:31.644Z,926.67
2017-02-18T01:36:45.421Z,926.67
2017-02-18T01:37:58.579Z,926.65
2017-02-18T01:39:12.315Z,926.64
2017-02-18T01:40:26.035Z,926.63
2017-02-18T01:41:39.757Z,926.6
2017-02-18T01:42:53.650Z,926.59
2017-02-18T01:44:07.453Z,926.53
2017-02-18T01:45:21.165Z,926.54
2017-02-18T01:46:34.855Z,926.51
2017-02-18T01:47:48.596Z,926.52
2017-02-18T01:49:02.332Z,926.55
2017-02-18T01:50:16.085Z,926.48
2017-02-18T01:51:29.834Z,926.56
2017-02-18T01:52:43.554Z,926.57
2017-02-18T01:53:57.264Z,926.61
2017-02-18T01:55:10.989Z,926.63
2017-02-18T01:56:24.762Z,926.62
2017-02-18T01:57:38.476Z,926.62
2017-02-18T01:58:52.231Z,926.64
2017-02-18T02:00:06.009Z,926.63
2017-02-18T02:01:18.537Z,926.65
2017-02-18T02:02:32.347Z,926.66
2017-02-18T02:03:46.070Z,926.67
2017-02-18T02:04:59.781Z,926.72
2017-02-18T02:06:13.504Z,926.72
2017-02-18T02:07:27.186Z,926.74
2017-02-18T02:08:40.945Z,926.77
2017-02-18T02:09:54.672Z,926.75
2017-02-18T02:11:08.387Z,926.76
2017-02-18T02:12:22.122Z,926.76
2017-02-18T02:13:35.891Z,926.76
2017-02-18T02:14:48.414Z,926.77
2017-02-18T02:16:02.119Z,926.72
2017-02-18T02:17:15.835Z,926.75
2017-02-18T02:18:28.941Z,926.74
2017-02-18T02:19:42.664Z,926.74
2017-02-18T02:20:55.776Z,926.72
2017-02-18T02:22:08.865Z,926.7
2017-02-18T02:23:22.577Z,926.69
2017-02-18T02:24:36.332Z,926.68
2017-02-18T02:25:50.051Z,926.65
2017-02-18T02:27:03.772Z,926.64
2017-02-18T02:28:17.480Z,926.69
2017-02-18T02:29:31.253Z,926.64
2017-02-18T02:30:44.992Z,926.69
2017-02-18T02:31:58.086Z,926.72
2017-02-18T02:33:11.781Z,926.71
2017-02-18T02:34:25.499Z,926.72
2017-02-18T02:35:39.212Z,926.73
2017-02-18T02:36:52.927Z,926.74
2017-02-18T02:38:06.675Z,926.75
2017-02-18T02:39:19.178Z,926.76
2017-02-18T02:40:32.882Z,926.74
2017-02-18T02:41:46.649Z,926.71
2017-02-18T02:43:00.408Z,926.71
2017-02-18T02:44:14.105Z,926.69
2017-02-18T02:45:27.812Z,926.67
2017-02-18T02:46:41.537Z,926.67
2017-02-18T02:47:55.264Z,926.65
2017-02-18T02:49:08.967Z,926.62
2017-02-18T02:50:22.674Z,926.62
2017-02-18T02:51:35.757Z,926.61
2017-02-18T02:52:49.500Z,926.62
2017-02-18T02:54:02.592Z,926.59
2017-02-18T02:55:16.295Z,926.62
2017-02-18T02:56:30.015Z,926.62
2017-02-18T02:57:43.765Z,926.63
2017-02-18T02:58:57.485Z,926.6
2017-02-18T03:00:11.199Z,926.61
2017-02-18T03:01:24.920Z,926.61
2017-02-18T03:02:38.656Z,926.58
2017-02-18T03:03:52.338Z,926.59
2017-02-18T03:05:06.114Z,926.61
2017-02-18T03:06:19.853Z,926.61
2017-02-18T03:07:32.961Z,926.57
2017-02-18T03:08:46.717Z,926.6
2017-02-18T03:09:59.855Z,926.6
2017-02-18T03:11:13.566Z,926.6
2017-02-18T03:12:27.316Z,926.59
2017-02-18T03:13:41.010Z,926.55
2017-02-18T03:14:54.695Z,926.49
2017-02-18T03:16:08.404Z,926.52
2017-02-18T03:17:21.499Z,926.48
2017-02-18T03:18:35.258Z,926.44
2017-02-18T03:19:49.012Z,926.43
2017-02-18T03:21:02.753Z,926.41
2017-02-18T03:22:16.488Z,926.38
2017-02-18T03:23:30.192Z,926.38
2017-02-18T03:24:43.278Z,926.36
2017-02-18T03:25:57.002Z,926.36
2017-02-18T03:27:10.752Z,926.34
2017-02-18T03:28:23.936Z,926.33
2017-02-18T03:29:37.666Z,926.28
2017-02-18T03:30:51.409Z,926.26
2017-02-18T03:32:05.102Z,926.25
2017-02-18T03:33:18.181Z,926.24
2017-02-18T03:34:31.867Z,926.25
2017-02-18T03:35:45.554Z,926.25
2017-02-18T03:36:58.683Z,926.24
2017-02-18T03:38:11.783Z,926.25
2017-02-18T03:39:25.457Z,926.23
2017-02-18T03:40:39.206Z,926.24
2017-02-18T03:41:52.361Z,926.22
2017-02-18T03:43:06.108Z,926.16
2017-02-18T03:44:19.864Z,926.16
2017-02-18T03:45:32.970Z,926.15
2017-02-18T03:46:46.664Z,926.12
2017-02-18T03:47:59.773Z,926.07
2017-02-18T03:49:13.493Z,926.1
2017-02-18T03:50:27.224Z,926.04
2017-02-18T03:51:40.971Z,926
2017-02-18T03:52:54.656Z,925.98
2017-02-18T03:54:08.411Z,925.93
2017-02-18T03:55:21.528Z,925.87
2017-02-18T03:56:35.250Z,925.87
2017-02-18T03:57:49.019Z,925.85
2017-02-18T03:59:02.694Z,925.91
2017-02-18T04:00:16.443Z,925.91
2017-02-18T04:01:30.142Z,925.93
2017-02-18T04:02:43.881Z,925.91
2017-02-18T04:03:57.577Z,925.9
2017-02-18T04:05:10.713Z,925.89
2017-02-18T04:06:24.409Z,925.91
2017-02-18T04:07:38.162Z,925.88
2017-02-18T04:08:51.904Z,925.89
2017-02-18T04:10:05.609Z,925.9
2017-02-18T04:11:19.287Z,925.85
2017-02-18T04:12:33.010Z,925.81
2017-02-18T04:13:46.128Z,925.78
2017-02-18T04:14:59.818Z,925.8
2017-02-18T04:16:13.521Z,925.76
2017-02-18T04:17:27.188Z,925.76
2017-02-18T04:18:40.893Z,925.72
2017-02-18T04:19:54.066Z,925.7
2017-02-18T04:21:07.167Z,925.68
2017-02-18T04:22:20.868Z,925.67
2017-02-18T04:23:34.597Z,925.68
2017-02-18T04:24:48.343Z,925.69
2017-02-18T04:26:02.069Z,925.65
2017-02-18T04:27:14.636Z,925.68
2017-02-18T04:28:28.372Z,925.65
2017-02-18T04:29:42.080Z,925.55
2017-02-18T04:30:55.781Z,925.6
2017-02-18T04:32:09.514Z,925.54
2017-02-18T04:33:22.622Z,925.5
2017-02-18T04:34:36.339Z,925.51
2017-02-18T04:35:49.504Z,925.5
2017-02-18T04:37:03.260Z,925.47
2017-02-18T04:38:16.422Z,925.44
2017-02-18T04:39:30.146Z,925.42
2017-02-18T04:40:43.262Z,925.4
2017-02-18T04:41:56.964Z,925.36
2017-02-18T04:43:10.094Z,925.34
2017-02-18T04:44:23.820Z,925.3
2017-02-18T04:45:37.561Z,925.28
2017-02-18T04:46:50.716Z,925.26
2017-02-18T04:48:04.493Z,925.24
2017-02-18T04:49:17.605Z,925.25
2017-02-18T04:50:31.339Z,925.28
2017-02-18T04:51:45.021Z,925.24
2017-02-18T04:52:58.726Z,925.21
2017-02-18T04:54:12.475Z,925.2
2017-02-18T04:55:26.206Z,925.19
2017-02-18T04:56:39.389Z,925.13
2017-02-18T04:57:53.102Z,925.11
2017-02-18T04:59:06.806Z,925.09
2017-02-18T05:00:20.499Z,925.04
2017-02-18T05:01:34.210Z,925.05
2017-02-18T05:02:47.946Z,925.04
2017-02-18T05:04:01.682Z,925.07
2017-02-18T05:05:15.370Z,925.07
2017-02-18T05:06:29.141Z,925.06
2017-02-18T05:07:42.895Z,925.08
2017-02-18T05:08:56.603Z,925.06
2017-02-18T05:10:10.354Z,925.02
2017-02-18T05:11:24.077Z,925.01
2017-02-18T05:12:37.783Z,924.96
2017-02-18T05:13:51.478Z,925.01
2017-02-18T05:15:05.193Z,925
2017-02-18T05:16:18.966Z,925
2017-02-18T05:17:32.704Z,925.03
2017-02-18T05:18:46.430Z,925.01
2017-02-18T05:20:00.169Z,924.96
2017-02-18T05:21:13.294Z,924.99
2017-02-18T05:22:27.023Z,924.99
2017-02-18T05:23:40.737Z,924.99
2017-02-18T05:24:54.456Z,925.08
2017-02-18T05:26:07.558Z,925.01
2017-02-18T05:27:20.702Z,925.05
2017-02-18T05:28:34.415Z,925.05
2017-02-18T05:29:48.147Z,925.05
2017-02-18T05:31:01.292Z,925.11
2017-02-18T05:32:13.867Z,925.08
2017-02-18T05:33:27.637Z,925.14
2017-02-18T05:34:41.348Z,925.11
2017-02-18T05:35:54.492Z,925.12
2017-02-18T05:37:08.159Z,925.08
2017-02-18T05:38:21.848Z,925.11
2017-02-18T05:39:35.609Z,925.08
2017-02-18T05:40:49.324Z,925.08
2017-02-18T05:42:03.037Z,925.08
2017-02-18T05:43:16.159Z,925.09
2017-02-18T05:44:29.863Z,925.08
2017-02-18T05:45:43.012Z,925.08
2017-02-18T05:46:56.779Z,925.11
2017-02-18T05:48:10.529Z,925.07
2017-02-18T05:49:23.665Z,925.06
2017-02-18T05:50:36.757Z,925.02
2017-02-18T05:51:50.454Z,924.99
2017-02-18T05:53:04.166Z,924.98
2017-02-18T05:54:17.308Z,924.96
2017-02-18T05:55:31.018Z,924.91
2017-02-18T05:56:44.768Z,924.92
2017-02-18T05:57:57.873Z,924.88
2017-02-18T05:59:11.594Z,924.87
2017-02-18T06:00:25.367Z,924.85
2017-02-18T06:01:38.497Z,924.83
2017-02-18T06:02:52.192Z,924.8
2017-02-18T06:04:05.933Z,924.77
2017-02-18T06:05:19.075Z,924.75
2017-02-18T06:06:32.755Z,924.69
2017-02-18T06:07:46.454Z,924.74
2017-02-18T06:09:00.201Z,924.67
2017-02-18T06:10:13.876Z,924.69
2017-02-18T06:11:26.992Z,924.67
2017-02-18T06:12:40.718Z,924.7
2017-02-18T06:13:54.452Z,924.69
2017-02-18T06:15:07.552Z,924.66
2017-02-18T06:16:21.289Z,924.63
2017-02-18T06:17:34.996Z,924.58
2017-02-18T06:18:48.676Z,924.54
2017-02-18T06:20:02.414Z,924.53
2017-02-18T06:21:16.190Z,924.46
2017-02-18T06:22:29.924Z,924.43
2017-02-18T06:23:43.619Z,924.4
2017-02-18T06:24:57.371Z,924.39
2017-02-18T06:26:11.067Z,924.36
2017-02-18T06:27:24.805Z,924.36
2017-02-18T06:28:38.554Z,924.37
2017-02-18T06:29:52.265Z,924.32
2017-02-18T06:31:05.377Z,924.31
2017-02-18T06:32:19.139Z,924.25
2017-02-18T06:33:32.860Z,924.28
2017-02-18T06:34:46.734Z,924.25
2017-02-18T06:36:00.648Z,924.25
2017-02-18T06:37:14.347Z,924.27
2017-02-18T06:38:28.064Z,924.26
2017-02-18T06:39:41.806Z,924.28
2017-02-18T06:40:55.501Z,924.27
2017-02-18T06:42:08.630Z,924.27
2017-02-18T06:43:22.351Z,924.28
2017-02-18T06:44:36.121Z,924.27
2017-02-18T06:45:49.815Z,924.3
2017-02-18T06:47:03.522Z,924.31
2017-02-18T06:48:16.645Z,924.31
2017-02-18T06:49:30.382Z,924.27
2017-02-18T06:50:44.093Z,924.22
2017-02-18T06:51:57.839Z,924.27
2017-02-18T06:53:11.543Z,924.25
2017-02-18T06:54:24.644Z,924.22
2017-02-18T06:55:38.320Z,924.24
2017-02-18T06:56:52.007Z,924.27
2017-02-18T06:58:05.107Z,924.3
2017-02-18T06:59:18.827Z,924.24
2017-02-18T07:00:32.554Z,924.24
2017-02-18T07:01:45.760Z,924.25
2017-02-18T07:02:59.493Z,924.21
2017-02-18T07:04:13.205Z,924.22
2017-02-18T07:05:26.918Z,924.22
2017-02-18T07:06:40.035Z,924.22
2017-02-18T07:07:53.206Z,924.21
2017-02-18T07:09:07.009Z,924.21
2017-02-18T07:10:20.709Z,924.19
2017-02-18T07:11:33.828Z,924.26
2017-02-18T07:12:47.598Z,924.26
2017-02-18T07:14:01.355Z,924.23
2017-02-18T07:15:15.191Z,924.21
2017-02-18T07:16:28.924Z,924.21
2017-02-18T07:17:42.002Z,924.22
2017-02-18T07:18:55.693Z,924.22
2017-02-18T07:20:09.400Z,924.23
2017-02-18T07:21:22.541Z,924.28
2017-02-18T07:22:36.291Z,924.32
2017-02-18T07:23:49.429Z,924.34
2017-02-18T07:25:03.153Z,924.35
2017-02-18T07:26:16.863Z,924.35
2017-02-18T07:27:30.609Z,924.39
2017-02-18T07:28:43.725Z,924.38
2017-02-18T07:29:56.873Z,924.33
2017-02-18T07:31:10.555Z,924.39
2017-02-18T07:32:23.668Z,924.37
2017-02-18T07:33:37.388Z,924.4
2017-02-18T07:34:51.170Z,924.39
2017-02-18T07:36:04.294Z,924.38
2017-02-18T07:37:17.994Z,924.38
2017-02-18T07:38:31.673Z,924.41
2017-02-18T07:39:45.365Z,924.48
2017-02-18T07:40:59.097Z,924.48
2017-02-18T07:42:12.810Z,924.51
2017-02-18T07:43:26.519Z,924.51
2017-02-18T07:44:40.248Z,924.56
2017-02-18T07:45:53.980Z,924.57
2017-02-18T07:47:07.940Z,924.55
2017-02-18T07:48:21.646Z,924.56
2017-02-18T07:49:35.368Z,924.56
2017-02-18T07:50:49.081Z,924.59
2017-02-18T07:52:02.803Z,924.61
2017-02-18T07:53:15.904Z,924.64
2017-02-18T07:54:29.623Z,924.64
2017-02-18T07:55:43.305Z,924.63
2017-02-18T07:56:57.012Z,924.65
2017-02-18T07:58:09.539Z,924.69
2017-02-18T07:59:22.678Z,924.67
2017-02-18T08:00:36.389Z,924.67
2017-02-18T08:01:50.100Z,924.64
2017-02-18T08:03:03.841Z,924.67
2017-02-18T08:04:17.588Z,924.68
2017-02-18T08:05:31.287Z,924.67
2017-02-18T08:06:45.023Z,924.72
2017-02-18T08:07:58.786Z,924.74
2017-02-18T08:09:11.302Z,924.68
2017-02-18T08:10:24.988Z,924.73
2017-02-18T08:11:38.190Z,924.69
2017-02-18T08:12:51.340Z,924.73
2017-02-18T08:14:05.009Z,924.75
2017-02-18T08:15:18.133Z,924.71
2017-02-18T08:16:31.850Z,924.73
2017-02-18T08:17:45.564Z,924.75
2017-02-18T08:18:59.259Z,924.74
2017-02-18T08:20:12.961Z,924.72
2017-02-18T08:21:26.682Z,924.73
2017-02-18T08:22:39.791Z,924.7
2017-02-18T08:23:53.483Z,924.79
2017-02-18T08:25:07.272Z,924.8
2017-02-18T08:26:21.013Z,924.81
2017-02-18T08:27:34.729Z,924.85
2017-02-18T08:28:47.892Z,924.82
2017-02-18T08:30:01.614Z,924.84
2017-02-18T08:31:14.737Z,924.84
2017-02-18T08:32:28.462Z,924.81
2017-02-18T08:33:42.183Z,924.82
2017-02-18T08:34:55.871Z,924.81
2017-02-18T08:36:08.378Z,924.8
2017-02-18T08:37:22.077Z,924.78
2017-02-18T08:38:35.786Z,924.79
2017-02-18T08:39:49.510Z,924.79
2017-02-18T08:41:03.244Z,924.79
2017-02-18T08:42:16.964Z,924.8
2017-02-18T08:43:30.714Z,924.83
2017-02-18T08:44:44.404Z,924.85
2017-02-18T08:45:57.491Z,924.83
2017-02-18T08:47:10.052Z,924.82
2017-02-18T08:48:23.183Z,924.85
2017-02-18T08:49:36.889Z,924.87
2017-02-18T08:50:50.628Z,924.87
2017-02-18T08:52:03.785Z,924.89
2017-02-18T08:53:16.988Z,924.91
2017-02-18T08:54:30.672Z,924.94
2017-02-18T08:55:44.436Z,924.89
2017-02-18T08:56:57.546Z,924.9
2017-02-18T08:58:10.644Z,924.88
2017-02-18T08:59:24.380Z,924.87
2017-02-18T09:00:38.130Z,924.91
2017-02-18T09:01:51.908Z,924.89
2017-02-18T09:03:05.611Z,924.93
2017-02-18T09:04:19.327Z,924.93
2017-02-18T09:05:33.134Z,924.96
2017-02-18T09:06:46.274Z,924.95
2017-02-18T09:07:59.436Z,924.95
2017-02-18T09:09:12.567Z,924.96
2017-02-18T09:10:25.727Z,924.99
2017-02-18T09:11:39.444Z,924.96
2017-02-18T09:12:53.140Z,925
2017-02-18T09:14:06.842Z,924.94
2017-02-18T09:15:20.521Z,924.93
2017-02-18T09:16:34.310Z,924.96
2017-02-18T09:17:47.442Z,924.98
2017-02-18T09:19:00.565Z,924.97
2017-02-18T09:20:14.275Z,925.01
2017-02-18T09:21:27.427Z,925.04
2017-02-18T09:22:40.587Z,925.09
2017-02-18T09:23:54.316Z,925.12
2017-02-18T09:25:08.017Z,925.15
2017-02-18T09:26:21.158Z,925.16
2017-02-18T09:27:34.891Z,925.18
2017-02-18T09:28:48.586Z,925.14
2017-02-18T09:30:02.317Z,925.1
2017-02-18T09:31:16.020Z,925.08
2017-02-18T09:32:29.755Z,925.12
2017-02-18T09:33:43.493Z,925.1
2017-02-18T09:34:57.247Z,925.12
2017-02-18T09:36:10.337Z,925.13
2017-02-18T09:37:24.057Z,925.1
2017-02-18T09:38:37.790Z,925.18
2017-02-18T09:39:51.499Z,925.17
2017-02-18T09:41:05.196Z,925.22
2017-02-18T09:42:18.311Z,925.2
2017-02-18T09:43:32.032Z,925.2
2017-02-18T09:44:45.731Z,925.23
2017-02-18T09:45:59.441Z,925.24
2017-02-18T09:47:13.159Z,925.26
2017-02-18T09:48:26.887Z,925.23
2017-02-18T09:49:40.616Z,925.25
2017-02-18T09:50:54.356Z,925.31
2017-02-18T09:52:08.083Z,925.31
2017-02-18T09:53:21.213Z,925.35
2017-02-18T09:54:34.939Z,925.33
2017-02-18T09:55:48.668Z,925.35
2017-02-18T09:57:02.411Z,925.34
2017-02-18T09:58:16.149Z,925.37
2017-02-18T09:59:29.846Z,925.37
2017-02-18T10:00:43.606Z,925.38
2017-02-18T10:01:57.297Z,925.38
2017-02-18T10:03:10.386Z,925.4
2017-02-18T10:04:23.489Z,925.38
2017-02-18T10:05:37.177Z,925.44
2017-02-18T10:06:50.905Z,925.43
2017-02-18T10:08:04.692Z,925.45
2017-02-18T10:09:18.464Z,925.49
2017-02-18T10:10:32.217Z,925.54
2017-02-18T10:11:45.937Z,925.54
2017-02-18T10:12:59.705Z,925.53
2017-02-18T10:14:12.805Z,925.58
2017-02-18T10:15:26.531Z,925.55
2017-02-18T10:16:40.252Z,925.54
2017-02-18T10:17:54.137Z,925.56
2017-02-18T10:19:07.904Z,925.56
2017-02-18T10:20:21.612Z,925.56
2017-02-18T10:21:35.357Z,925.59
2017-02-18T10:22:49.031Z,925.6
2017-02-18T10:24:02.137Z,925.6
2017-02-18T10:25:15.251Z,925.6
2017-02-18T10:26:28.974Z,925.57
2017-02-18T10:27:42.744Z,925.58
2017-02-18T10:28:55.949Z,925.65
2017-02-18T10:30:09.651Z,925.66
2017-02-18T10:31:22.780Z,925.69
2017-02-18T10:32:36.512Z,925.72
2017-02-18T10:33:50.172Z,925.74
2017-02-18T10:35:04.011Z,925.74
2017-02-18T10:36:17.730Z,925.76
2017-02-18T10:37:31.457Z,925.79
2017-02-18T10:38:45.148Z,925.77
2017-02-18T10:39:58.236Z,925.82
2017-02-18T10:41:10.748Z,925.83
2017-02-18T10:42:24.507Z,925.89
2017-02-18T10:43:38.272Z,925.9
2017-02-18T10:44:51.979Z,925.88
2017-02-18T10:46:05.684Z,925.88
2017-02-18T10:47:19.400Z,925.89
2017-02-18T10:48:33.122Z,925.87
2017-02-18T10:49:46.259Z,925.88
2017-02-18T10:51:00.006Z,925.89
2017-02-18T10:52:13.724Z,925.89
2017-02-18T10:53:26.838Z,925.94
2017-02-18T10:54:40.576Z,925.97
2017-02-18T10:55:54.335Z,925.97
2017-02-18T10:57:08.069Z,925.98
2017-02-18T10:58:21.216Z,925.97
2017-02-18T10:59:34.947Z,926
2017-02-18T11:00:48.724Z,925.98
2017-02-18T11:02:02.419Z,925.95
2017-02-18T11:03:16.123Z,925.94
2017-02-18T11:04:29.825Z,925.97
2017-02-18T11:05:43.562Z,925.99
2017-02-18T11:06:57.276Z,925.98
2017-02-18T11:08:10.944Z,926.02
2017-02-18T11:09:24.635Z,926
2017-02-18T11:10:38.384Z,926.03
2017-02-18T11:11:51.518Z,926.08
2017-02-18T11:13:05.202Z,926.06
2017-02-18T11:14:18.930Z,926.04
2017-02-18T11:15:32.658Z,926.04
2017-02-18T11:16:46.368Z,926.04
2017-02-18T11:18:00.086Z,925.97
2017-02-18T11:19:13.820Z,926
2017-02-18T11:20:27.548Z,925.99
2017-02-18T11:21:41.259Z,926.03
2017-02-18T11:22:54.393Z,926.06
2017-02-18T11:24:08.099Z,926.05
2017-02-18T11:25:21.869Z,926.03
2017-02-18T11:26:35.610Z,926.07
2017-02-18T11:27:49.360Z,926.08
2017-02-18T11:29:03.097Z,926.1
2017-02-18T11:30:16.842Z,926.09
2017-02-18T11:31:30.555Z,926.05
2017-02-18T11:32:43.719Z,926.06
2017-02-18T11:33:56.845Z,926.07
2017-02-18T11:35:10.572Z,926.12
2017-02-18T11:36:24.294Z,926.14
2017-02-18T11:37:38.084Z,926.15
2017-02-18T11:38:51.820Z,926.17
2017-02-18T11:40:05.526Z,926.15
2017-02-18T11:41:18.634Z,926.16
2017-02-18T11:42:32.376Z,926.19
2017-02-18T11:43:46.134Z,926.21
2017-02-18T11:44:59.914Z,926.29
2017-02-18T11:46:13.697Z,926.34
2017-02-18T11:47:27.412Z,926.33
2017-02-18T11:48:39.918Z,926.29
2017-02-18T11:49:53.639Z,926.28
2017-02-18T11:51:07.368Z,926.3
2017-02-18T11:52:20.484Z,926.31
2017-02-18T11:53:34.188Z,926.28
2017-02-18T11:54:47.864Z,926.3
2017-02-18T11:56:01.594Z,926.26
2017-02-18T11:57:15.366Z,926.33
2017-02-18T11:58:28.515Z,926.3
2017-02-18T11:59:42.208Z,926.35
2017-02-18T12:00:55.367Z,926.39
2017-02-18T12:02:08.492Z,926.29
2017-02-18T12:03:22.183Z,926.34
2017-02-18T12:04:35.324Z,926.29
2017-02-18T12:05:49.064Z,926.28
2017-02-18T12:07:02.786Z,926.29
2017-02-18T12:08:16.532Z,926.3
2017-02-18T12:09:30.312Z,926.31
2017-02-18T12:10:44.025Z,926.29
2017-02-18T12:11:57.742Z,926.31
2017-02-18T12:13:11.449Z,926.3
2017-02-18T12:14:24.588Z,926.28
2017-02-18T12:15:38.282Z,926.26
2017-02-18T12:16:52.020Z,926.32
2017-02-18T12:18:05.758Z,926.3
2017-02-18T12:19:18.902Z,926.36
2017-02-18T12:20:32.635Z,926.32
2017-02-18T12:21:46.345Z,926.33
2017-02-18T12:23:00.078Z,926.35
2017-02-18T12:24:13.181Z,926.41
2017-02-18T12:25:26.918Z,926.43
2017-02-18T12:26:40.663Z,926.43
2017-02-18T12:27:54.370Z,926.45
2017-02-18T12:29:08.069Z,926.45
2017-02-18T12:30:21.829Z,926.48
2017-02-18T12:31:35.576Z,926.45
2017-02-18T12:32:49.295Z,926.44
2017-02-18T12:34:03.033Z,926.39
2017-02-18T12:35:16.166Z,926.48
2017-02-18T12:36:29.865Z,926.44
2017-02-18T12:37:43.607Z,926.42
2017-02-18T12:38:57.377Z,926.5
2017-02-18T12:40:11.151Z,926.49
2017-02-18T12:41:24.878Z,926.51
2017-02-18T12:42:38.670Z,926.51
2017-02-18T12:43:52.380Z,926.48
2017-02-18T12:45:06.105Z,926.44
2017-02-18T12:46:19.823Z,926.45
2017-02-18T12:47:33.580Z,926.44
2017-02-18T12:48:47.308Z,926.49
2017-02-18T12:50:01.047Z,926.43
2017-02-18T12:51:14.872Z,926.4
2017-02-18T12:52:28.649Z,926.44
2017-02-18T12:53:42.359Z,926.43
2017-02-18T12:54:55.517Z,926.52
2017-02-18T12:56:08.681Z,926.5
2017-02-18T12:57:21.838Z,926.51
2017-02-18T12:58:35.559Z,926.51
2017-02-18T12:59:49.286Z,926.48
2017-02-18T13:01:03.017Z,926.51
2017-02-18T13:02:16.736Z,926.52
2017-02-18T13:03:29.935Z,926.54
2017-02-18T13:04:43.700Z,926.53
2017-02-18T13:05:57.433Z,926.51
2017-02-18T13:07:11.174Z,926.51
2017-02-18T13:08:24.924Z,926.53
2017-02-18T13:09:38.091Z,926.49
2017-02-18T13:10:51.820Z,926.5
2017-02-18T13:12:05.593Z,926.51
2017-02-18T13:13:18.716Z,926.52
2017-02-18T13:14:32.449Z,926.49
2017-02-18T13:15:46.181Z,926.53
2017-02-18T13:16:59.348Z,926.5
2017-02-18T13:18:13.058Z,926.5
2017-02-18T13:19:26.789Z,926.48
2017-02-18T13:20:40.505Z,926.47
2017-02-18T13:21:53.699Z,926.49
2017-02-18T13:23:06.818Z,926.54
2017-02-18T13:24:19.952Z,926.55
2017-02-18T13:25:33.689Z,926.57
2017-02-18T13:26:47.400Z,926.49
2017-02-18T13:28:01.145Z,926.49
2017-02-18T13:29:14.285Z,926.53
2017-02-18T13:30:27.989Z,926.58
2017-02-18T13:31:41.731Z,926.58
2017-02-18T13:32:55.449Z,926.54
2017-02-18T13:34:09.204Z,926.58
2017-02-18T13:35:22.928Z,926.59
2017-02-18T13:36:36.628Z,926.55
2017-02-18T13:37:49.784Z,926.58
2017-02-18T13:39:03.568Z,926.48
2017-02-18T13:40:17.325Z,926.49
2017-02-18T13:41:31.077Z,926.51
2017-02-18T13:42:44.846Z,926.46
2017-02-18T13:43:58.584Z,926.42
2017-02-18T13:45:11.742Z,926.42
2017-02-18T13:46:25.521Z,926.38
2017-02-18T13:47:39.257Z,926.4
2017-02-18T13:48:52.969Z,926.41
2017-02-18T13:50:06.778Z,926.39
2017-02-18T13:51:18.677Z,926.38
2017-02-18T13:52:32.451Z,926.37
2017-02-18T13:53:46.182Z,926.3
2017-02-18T13:54:59.365Z,926.41
2017-02-18T13:56:11.937Z,926.35
2017-02-18T13:57:25.698Z,926.4
2017-02-18T13:58:39.438Z,926.3
2017-02-18T13:59:52.614Z,926.29
2017-02-18T14:01:06.331Z,926.33
2017-02-18T14:02:18.932Z,926.31
2017-02-18T14:03:32.668Z,926.38
2017-02-18T14:04:46.386Z,926.3
2017-02-18T14:06:00.082Z,926.31
2017-02-18T14:07:13.203Z,926.33
2017-02-18T14:08:26.403Z,926.3
2017-02-18T14:09:40.139Z,926.34
2017-02-18T14:10:53.842Z,926.32
2017-02-18T14:12:07.571Z,926.25
2017-02-18T14:13:20.085Z,926.23
2017-02-18T14:14:33.817Z,926.19
2017-02-18T14:15:46.972Z,926.2
2017-02-18T14:17:00.686Z,926.25
2017-02-18T14:18:13.847Z,926.2
2017-02-18T14:19:27.588Z,926.22
2017-02-18T14:20:41.323Z,926.24
2017-02-18T14:21:55.084Z,926.17
2017-02-18T14:23:08.783Z,926.21
2017-02-18T14:24:22.499Z,926.21
2017-02-18T14:25:36.246Z,926.18
2017-02-18T14:26:49.985Z,926.17
2017-02-18T14:28:03.737Z,926.19
2017-02-18T14:29:16.852Z,926.17
2017-02-18T14:30:29.974Z,926.12
2017-02-18T14:31:43.706Z,926.16
2017-02-18T14:32:57.455Z,926.12
2017-02-18T14:34:11.187Z,926.09
2017-02-18T14:35:24.286Z,926.11
2017-02-18T14:36:38.010Z,926.15
2017-02-18T14:37:51.127Z,926.11
2017-02-18T14:39:04.835Z,926.08
2017-02-18T14:40:17.971Z,926.08
2017-02-18T14:41:31.705Z,926.08
2017-02-18T14:42:45.465Z,926.07
2017-02-18T14:43:59.166Z,926.09
2017-02-18T14:45:12.350Z,926.08
2017-02-18T14:46:26.113Z,926.03
2017-02-18T14:47:39.825Z,926.08
2017-02-18T14:48:53.588Z,926.04
2017-02-18T14:50:06.755Z,926.05
2017-02-18T14:51:20.526Z,925.99
2017-02-18T14:52:33.642Z,926.05
2017-02-18T14:53:47.384Z,926.03
2017-02-18T14:55:01.179Z,925.99
2017-02-18T14:56:14.330Z,926.01
2017-02-18T14:57:28.079Z,925.96
2017-02-18T14:58:41.247Z,925.98
2017-02-18T14:59:54.947Z,926
2017-02-18T15:01:08.126Z,926.06
2017-02-18T15:02:21.900Z,926.02
2017-02-18T15:03:35.626Z,926
2017-02-18T15:04:49.384Z,925.98
2017-02-18T15:06:03.135Z,925.94
2017-02-18T15:07:16.261Z,925.87
2017-02-18T15:08:29.967Z,925.89
2017-02-18T15:09:43.717Z,925.89
2017-02-18T15:10:57.442Z,925.87
2017-02-18T15:12:10.610Z,925.94
2017-02-18T15:13:23.741Z,925.89
2017-02-18T15:14:37.477Z,925.93
2017-02-18T15:15:50.646Z,925.9
2017-02-18T15:17:03.787Z,925.96
2017-02-18T15:18:17.539Z,925.89
2017-02-18T15:19:31.323Z,925.87
2017-02-18T15:20:44.496Z,925.86
2017-02-18T15:21:58.300Z,925.92